createdAt,value
2023-04-10T00:20:01.141Z,75
2023-04-10T00:25:00.641Z,75
2023-04-10T00:30:00.506Z,75
2023-04-10T00:35:00.771Z,74
2023-04-10T00:40:00.872Z,74
2023-04-10T00:45:00.553Z,74
2023-04-10T00:50:00.566Z,73
2023-04-10T00:55:00.702Z,72
2023-04-10T01:05:00.435Z,73
2023-04-10T01:10:00.417Z,73
2023-04-10T01:15:00.440Z,73
2023-04-10T01:20:00.448Z,73
2023-04-10T01:25:00.411Z,73
2023-04-10T01:30:00.437Z,73
2023-04-10T01:40:00.472Z,74
2023-04-10T01:45:00.424Z,74
2023-04-10T01:50:00.446Z,74
2023-04-10T01:55:00.427Z,74
2023-04-10T02:00:00.414Z,74
2023-04-10T02:05:00.559Z,74
2023-04-10T02:10:00.422Z,73
2023-04-10T02:15:00.442Z,73
2023-04-10T02:20:00.431Z,73
2023-04-10T02:25:00.430Z,74
2023-04-10T02:30:00.466Z,74
2023-04-10T02:35:00.415Z,74
2023-04-10T02:40:00.431Z,74
2023-04-10T02:45:00.432Z,74
2023-04-10T02:50:00.440Z,74
2023-04-10T02:55:00.434Z,74
2023-04-10T03:00:00.405Z,74
2023-04-10T03:05:00.501Z,74
2023-04-10T03:10:00.441Z,74
2023-04-10T03:15:00.438Z,74
2023-04-10T03:20:00.419Z,75
2023-04-10T03:25:00.420Z,75
2023-04-10T03:30:00.440Z,75
2023-04-10T03:35:00.417Z,75
2023-04-10T03:40:00.395Z,75
2023-04-10T03:45:00.448Z,75
2023-04-10T03:50:00.433Z,76
2023-04-10T03:55:00.430Z,75
2023-04-10T04:00:00.442Z,76
2023-04-10T04:05:00.457Z,76
2023-04-10T04:10:00.454Z,76
2023-04-10T04:15:00.438Z,76
2023-04-10T04:20:00.440Z,76
2023-04-10T04:25:00.415Z,77
2023-04-10T04:30:00.439Z,77
2023-04-10T04:35:00.442Z,77
2023-04-10T04:40:00.532Z,77
2023-04-10T04:45:00.394Z,76
2023-04-10T04:50:00.441Z,76
2023-04-10T04:55:00.447Z,76
2023-04-10T05:00:01.023Z,76
2023-04-10T05:05:00.441Z,76
2023-04-10T05:10:00.446Z,76
2023-04-10T05:15:00.453Z,76
2023-04-10T05:20:00.442Z,76
2023-04-10T05:25:00.461Z,76
2023-04-10T05:30:00.422Z,76
2023-04-10T05:35:00.432Z,75
2023-04-10T05:40:00.476Z,75
2023-04-10T05:45:00.435Z,75
2023-04-10T05:50:00.440Z,75
2023-04-10T05:55:00.478Z,74
2023-04-10T06:00:00.437Z,74
2023-04-10T06:05:00.534Z,73
2023-04-10T06:10:00.473Z,73
2023-04-10T06:15:00.633Z,73
2023-04-10T06:20:00.429Z,73
2023-04-10T06:25:00.422Z,72
2023-04-10T06:30:00.465Z,72
2023-04-10T06:35:00.445Z,72
2023-04-10T06:40:00.430Z,72
2023-04-10T06:45:00.471Z,72
2023-04-10T06:50:00.563Z,71
2023-04-10T06:55:00.445Z,71
2023-04-10T07:00:00.426Z,70
2023-04-10T07:05:00.470Z,69
2023-04-10T07:10:00.625Z,68
2023-04-10T07:15:01.909Z,68
2023-04-10T07:20:00.437Z,68
2023-04-10T07:25:00.430Z,67
2023-04-10T07:30:00.429Z,67
2023-04-10T07:35:00.460Z,66
2023-04-10T07:40:00.450Z,66
2023-04-10T07:45:00.451Z,66
2023-04-10T07:50:00.441Z,67
2023-04-10T07:55:00.455Z,66
2023-04-10T08:00:00.434Z,65
2023-04-10T08:05:00.657Z,64
2023-04-10T08:10:00.459Z,62
2023-04-10T08:15:00.481Z,62
2023-04-10T08:20:00.487Z,60
2023-04-10T08:25:00.486Z,59
2023-04-10T08:30:00.488Z,58
2023-04-10T08:40:00.434Z,56
2023-04-10T08:45:00.447Z,56
2023-04-10T08:50:00.416Z,54
2023-04-10T08:55:01.821Z,54
2023-04-10T09:00:04.254Z,54
2023-04-10T09:05:00.458Z,54
2023-04-10T09:10:00.501Z,54
2023-04-10T09:15:00.458Z,53
2023-04-10T09:20:00.431Z,53
2023-04-10T09:25:00.472Z,55
2023-04-10T09:30:00.508Z,54
2023-04-10T09:35:00.471Z,54
2023-04-10T09:40:00.507Z,55
2023-04-10T09:45:00.470Z,55
2023-04-10T09:50:00.430Z,55
2023-04-10T09:55:00.629Z,56
2023-04-10T10:00:00.482Z,55
2023-04-10T10:05:00.538Z,55
2023-04-10T10:10:00.454Z,56
2023-04-10T10:15:00.436Z,55
2023-04-10T10:20:00.505Z,55
2023-04-10T10:25:00.455Z,55
2023-04-10T10:30:02.975Z,55
2023-04-10T10:35:00.455Z,56
2023-04-10T10:40:00.453Z,54
2023-04-10T10:45:00.547Z,54
2023-04-10T10:50:00.479Z,55
2023-04-10T10:55:00.551Z,55
2023-04-10T11:00:00.451Z,55
2023-04-10T11:05:00.484Z,55
2023-04-10T11:10:00.456Z,55
2023-04-10T11:15:00.482Z,55
2023-04-10T11:20:00.454Z,55
2023-04-10T11:25:00.544Z,54
2023-04-10T11:30:00.433Z,54
2023-04-10T11:35:01.089Z,54
2023-04-10T11:40:00.431Z,53
2023-04-10T11:45:00.463Z,53
2023-04-10T11:50:00.447Z,52
2023-04-10T11:55:00.465Z,52
2023-04-10T12:00:00.439Z,51
2023-04-10T12:05:00.478Z,50
2023-04-10T12:10:00.466Z,50
2023-04-10T12:15:00.452Z,49
2023-04-10T12:20:00.504Z,50
2023-04-10T12:25:00.439Z,50
2023-04-10T12:30:00.534Z,50
2023-04-10T12:35:00.442Z,50
2023-04-10T12:40:00.576Z,49
2023-04-10T12:45:00.484Z,49
2023-04-10T12:50:00.416Z,50
2023-04-10T12:55:00.599Z,49
2023-04-10T13:00:02.143Z,50
2023-04-10T13:05:00.437Z,49
2023-04-10T13:10:00.437Z,49
2023-04-10T13:15:00.447Z,48
2023-04-10T13:20:00.469Z,49
2023-04-10T13:25:00.445Z,48
2023-04-10T13:30:00.422Z,49
2023-04-10T13:35:00.448Z,49
2023-04-10T13:40:00.451Z,49
2023-04-10T13:45:00.448Z,49
2023-04-10T13:50:00.468Z,50
2023-04-10T13:55:00.474Z,50
2023-04-10T14:00:00.441Z,51
2023-04-10T14:05:00.437Z,50
2023-04-10T14:10:00.674Z,50
2023-04-10T14:15:00.421Z,51
2023-04-10T14:20:00.463Z,54
2023-04-10T14:25:11.892Z,57
2023-04-10T14:30:00.439Z,55
2023-04-10T14:35:00.474Z,53
2023-04-10T14:40:00.482Z,52
2023-04-10T14:45:00.506Z,52
2023-04-10T14:50:00.411Z,52
2023-04-10T14:55:00.478Z,52
2023-04-10T15:00:00.410Z,51
2023-04-10T15:05:00.449Z,53
2023-04-10T15:10:00.860Z,53
2023-04-10T15:15:00.466Z,57
2023-04-10T15:20:00.425Z,58
2023-04-10T15:25:00.451Z,63
2023-04-10T15:30:00.445Z,66
2023-04-10T15:35:00.460Z,70
2023-04-10T15:40:00.483Z,73
2023-04-10T15:45:00.424Z,75
2023-04-10T15:50:00.414Z,77
2023-04-10T15:55:00.427Z,77
2023-04-10T16:00:01.083Z,79
2023-04-10T16:05:00.541Z,80
2023-04-10T16:10:00.462Z,80
2023-04-10T16:15:00.449Z,81
2023-04-10T16:20:00.432Z,82
2023-04-10T16:25:00.447Z,81
2023-04-10T20:05:01.511Z,88
2023-04-10T20:10:00.532Z,89
2023-04-10T20:15:00.608Z,88
2023-04-10T20:20:01.704Z,88
2023-04-10T20:25:00.877Z,86
2023-04-10T20:30:00.548Z,86
2023-04-10T20:35:01.086Z,86
2023-04-10T20:40:00.813Z,87
2023-04-10T20:45:00.968Z,87
2023-04-10T20:50:00.606Z,85
2023-04-10T20:55:00.993Z,85
2023-04-10T21:00:01.077Z,86
2023-04-10T21:05:00.592Z,86
2023-04-10T21:10:01.564Z,86
2023-04-10T21:15:00.940Z,86
2023-04-10T21:20:01.169Z,86
2023-04-10T21:25:00.565Z,86
2023-04-10T21:30:01.205Z,86
2023-04-10T21:35:00.961Z,86
2023-04-10T21:40:00.721Z,85
2023-04-10T21:45:02.851Z,85
2023-04-10T21:50:00.630Z,85
2023-04-10T21:55:00.818Z,85
2023-04-10T22:00:00.888Z,85
2023-04-10T22:05:01.071Z,85
2023-04-10T22:10:00.715Z,85
2023-04-10T22:15:01.780Z,85
2023-04-10T22:20:01.148Z,85
2023-04-10T22:25:00.735Z,85
2023-04-10T22:30:03.688Z,85
2023-04-10T22:35:00.687Z,85
2023-04-10T22:40:01.463Z,84
2023-04-10T22:45:00.669Z,83
2023-04-10T22:50:00.619Z,83
2023-04-10T22:55:00.751Z,83
2023-04-10T23:00:01.035Z,83
2023-04-10T23:05:00.919Z,81
2023-04-10T23:10:01.039Z,86
2023-04-10T23:15:00.754Z,86
2023-04-10T23:20:01.352Z,86
2023-04-10T23:25:00.914Z,87
2023-04-10T23:30:00.893Z,87
2023-04-10T23:35:02.320Z,88
2023-04-10T23:40:00.943Z,88
2023-04-10T23:45:01.038Z,88
2023-04-10T23:50:00.715Z,89
2023-04-10T23:55:01.051Z,88
